createdAt,value
2023-01-25T00:00:46.666Z,278.12
2023-01-25T00:01:46.688Z,278.12
2023-01-25T00:02:46.708Z,278.12
2023-01-25T00:03:46.675Z,278.12
2023-01-25T00:04:46.688Z,278.12
2023-01-25T00:05:46.672Z,278.12
2023-01-25T00:06:46.673Z,278.12
2023-01-25T00:07:46.679Z,278.12
2023-01-25T00:08:46.671Z,278.12
2023-01-25T00:09:46.676Z,278.12
2023-01-25T00:10:46.675Z,278.12
2023-01-25T00:11:46.667Z,278.12
2023-01-25T00:12:46.687Z,278.12
2023-01-25T00:13:46.704Z,278.12
2023-01-25T00:14:46.680Z,278.12
2023-01-25T00:15:46.673Z,278.12
2023-01-25T00:16:46.721Z,292.24
2023-01-25T00:17:46.685Z,286.59
2023-01-25T00:18:46.675Z,285.18
2023-01-25T00:19:46.696Z,285.18
2023-01-25T00:20:46.683Z,285.18
2023-01-25T00:21:46.686Z,293.65
2023-01-25T00:22:46.681Z,285.18
2023-01-25T00:23:46.728Z,296.47
2023-01-25T00:24:46.687Z,275.29
2023-01-25T00:25:46.680Z,275.29
2023-01-25T00:26:46.692Z,275.29
2023-01-25T00:27:46.685Z,275.29
2023-01-25T00:28:46.684Z,275.29
2023-01-25T00:29:46.704Z,275.29
2023-01-25T00:30:46.687Z,275.29
2023-01-25T00:31:46.775Z,24
2023-01-25T00:32:46.810Z,1.41
2023-01-25T00:33:46.701Z,1.41
2023-01-25T00:34:46.693Z,1.41
2023-01-25T00:35:46.695Z,9.88
2023-01-25T00:36:46.695Z,4.24
2023-01-25T00:37:46.692Z,4.24
2023-01-25T00:38:46.694Z,4.24
2023-01-25T00:39:46.692Z,4.24
2023-01-25T00:40:46.695Z,4.24
2023-01-25T00:41:46.705Z,4.24
2023-01-25T00:42:46.688Z,4.24
2023-01-25T00:43:46.684Z,4.24
2023-01-25T00:44:46.701Z,4.24
2023-01-25T00:45:46.743Z,4.24
2023-01-25T00:46:46.708Z,4.24
2023-01-25T00:47:46.698Z,4.24
2023-01-25T00:48:46.700Z,4.24
2023-01-25T00:49:46.699Z,4.24
2023-01-25T00:50:46.693Z,4.24
2023-01-25T00:51:46.704Z,4.24
2023-01-25T00:52:46.703Z,4.24
2023-01-25T00:53:46.708Z,4.24
2023-01-25T00:54:46.702Z,4.24
2023-01-25T00:55:46.696Z,4.24
2023-01-25T00:56:46.693Z,4.24
2023-01-25T00:57:46.708Z,4.24
2023-01-25T00:58:46.699Z,4.24
2023-01-25T00:59:46.713Z,4.24
2023-01-25T01:00:46.820Z,4.24
2023-01-25T01:01:46.729Z,4.24
2023-01-25T01:02:46.723Z,4.24
2023-01-25T01:03:46.719Z,4.24
2023-01-25T01:04:46.778Z,4.24
2023-01-25T01:05:46.723Z,4.24
2023-01-25T01:06:46.717Z,4.24
2023-01-25T01:07:46.729Z,4.24
2023-01-25T01:08:46.719Z,4.24
2023-01-25T01:09:46.729Z,4.24
2023-01-25T01:10:46.736Z,4.24
2023-01-25T01:11:46.719Z,4.24
2023-01-25T01:12:46.711Z,4.24
2023-01-25T01:13:46.715Z,4.24
2023-01-25T01:14:46.723Z,4.24
2023-01-25T01:15:46.711Z,4.24
2023-01-25T01:16:46.787Z,4.24
2023-01-25T01:17:46.751Z,4.24
2023-01-25T01:18:46.737Z,4.24
2023-01-25T01:19:46.751Z,4.24
2023-01-25T01:20:46.725Z,4.24
2023-01-25T01:21:46.740Z,4.24
2023-01-25T01:22:46.742Z,4.24
2023-01-25T01:23:46.786Z,4.24
2023-01-25T01:24:46.738Z,4.24
2023-01-25T01:25:46.737Z,4.24
2023-01-25T01:26:46.735Z,4.24
2023-01-25T01:27:46.743Z,4.24
2023-01-25T01:28:46.750Z,4.24
2023-01-25T01:29:46.761Z,4.24
2023-01-25T01:30:46.760Z,4.24
2023-01-25T01:31:46.856Z,4.24
2023-01-25T01:32:46.846Z,4.24
2023-01-25T01:33:46.783Z,4.24
2023-01-25T01:34:46.767Z,4.24
2023-01-25T01:35:46.781Z,4.24
2023-01-25T01:36:46.760Z,4.24
2023-01-25T01:37:46.772Z,4.24
2023-01-25T01:38:46.776Z,4.24
2023-01-25T01:39:46.784Z,4.24
2023-01-25T01:40:46.774Z,4.24
2023-01-25T01:41:46.775Z,4.24
2023-01-25T01:42:46.769Z,4.24
2023-01-25T01:43:46.788Z,4.24
2023-01-25T01:44:46.791Z,4.24
2023-01-25T01:45:46.829Z,4.24
2023-01-25T01:46:46.778Z,4.24
2023-01-25T01:47:46.774Z,4.24
2023-01-25T01:48:46.804Z,4.24
2023-01-25T01:49:46.826Z,4.24
2023-01-25T01:50:46.806Z,4.24
2023-01-25T01:51:46.795Z,4.24
2023-01-25T01:52:46.798Z,4.24
2023-01-25T01:53:46.797Z,4.24
2023-01-25T01:54:46.806Z,4.24
2023-01-25T01:55:46.799Z,4.24
2023-01-25T01:56:46.815Z,4.24
2023-01-25T01:57:46.807Z,4.24
2023-01-25T01:58:46.805Z,4.24
2023-01-25T01:59:46.812Z,4.24
2023-01-25T02:00:46.825Z,4.24
2023-01-25T02:01:46.824Z,4.24
2023-01-25T02:02:46.893Z,4.24
2023-01-25T02:03:46.810Z,4.24
2023-01-25T02:04:46.827Z,4.24
2023-01-25T02:05:46.859Z,4.24
2023-01-25T02:06:46.820Z,4.24
2023-01-25T02:07:46.832Z,4.24
2023-01-25T02:08:46.822Z,4.24
2023-01-25T02:09:46.833Z,4.24
2023-01-25T02:10:46.832Z,4.24
2023-01-25T02:11:46.846Z,4.24
2023-01-25T02:12:46.833Z,4.24
2023-01-25T02:13:46.839Z,4.24
2023-01-25T02:14:46.840Z,4.24
2023-01-25T02:15:46.861Z,4.24
2023-01-25T02:16:46.854Z,4.24
2023-01-25T02:17:46.835Z,4.24
2023-01-25T02:18:46.848Z,4.24
2023-01-25T02:19:46.833Z,4.24
2023-01-25T02:20:46.839Z,4.24
2023-01-25T02:21:46.866Z,290.82
2023-01-25T02:22:46.837Z,290.82
2023-01-25T02:23:46.877Z,289.41
2023-01-25T02:24:46.840Z,323.29
2023-01-25T02:25:46.843Z,279.53
2023-01-25T02:26:46.844Z,279.53
2023-01-25T02:27:46.852Z,279.53
2023-01-25T02:28:46.845Z,279.53
2023-01-25T02:29:46.849Z,279.53
2023-01-25T02:30:46.876Z,279.53
2023-01-25T02:31:46.927Z,279.53
2023-01-25T02:32:46.864Z,279.53
2023-01-25T02:33:46.848Z,279.53
2023-01-25T02:34:46.852Z,279.53
2023-01-25T02:35:46.851Z,279.53
2023-01-25T02:36:46.855Z,279.53
2023-01-25T02:37:46.879Z,279.53
2023-01-25T02:38:46.850Z,279.53
2023-01-25T02:39:46.870Z,279.53
2023-01-25T02:40:46.871Z,279.53
2023-01-25T02:41:46.865Z,279.53
2023-01-25T02:42:46.859Z,279.53
2023-01-25T02:43:46.864Z,279.53
2023-01-25T02:44:46.875Z,279.53
2023-01-25T02:45:46.892Z,279.53
2023-01-25T02:46:46.882Z,279.53
2023-01-25T02:47:46.864Z,279.53
2023-01-25T02:48:46.877Z,279.53
2023-01-25T02:49:46.889Z,279.53
2023-01-25T02:50:46.877Z,279.53
2023-01-25T02:51:46.877Z,279.53
2023-01-25T02:52:46.887Z,279.53
2023-01-25T02:53:46.925Z,279.53
2023-01-25T02:54:46.889Z,279.53
2023-01-25T02:55:46.890Z,279.53
2023-01-25T02:56:46.892Z,279.53
2023-01-25T02:57:46.901Z,279.53
2023-01-25T02:58:46.915Z,279.53
2023-01-25T02:59:46.891Z,279.53
2023-01-25T03:00:46.910Z,279.53
2023-01-25T03:01:46.929Z,279.53
2023-01-25T03:02:46.954Z,279.53
2023-01-25T03:03:46.896Z,279.53
2023-01-25T03:04:46.915Z,279.53
2023-01-25T03:05:46.914Z,279.53
2023-01-25T03:06:46.906Z,279.53
2023-01-25T03:07:46.902Z,279.53
2023-01-25T03:08:46.905Z,279.53
2023-01-25T03:09:46.975Z,279.53
2023-01-25T03:10:46.915Z,279.53
2023-01-25T03:11:46.924Z,279.53
2023-01-25T03:12:46.929Z,279.53
2023-01-25T03:13:46.921Z,279.53
2023-01-25T03:14:46.918Z,279.53
2023-01-25T03:15:46.980Z,224.47
2023-01-25T03:16:46.923Z,223.06
2023-01-25T03:17:46.932Z,223.06
2023-01-25T03:18:46.918Z,223.06
2023-01-25T03:19:46.936Z,223.06
2023-01-25T03:20:46.936Z,223.06
2023-01-25T03:21:46.935Z,223.06
2023-01-25T03:22:46.939Z,223.06
2023-01-25T03:23:47.032Z,223.06
2023-01-25T03:24:46.938Z,223.06
2023-01-25T03:25:46.958Z,223.06
2023-01-25T03:26:46.936Z,223.06
2023-01-25T03:27:46.938Z,223.06
2023-01-25T03:28:46.951Z,223.06
2023-01-25T03:29:46.951Z,223.06
2023-01-25T03:30:46.937Z,223.06
2023-01-25T03:31:47.079Z,223.06
2023-01-25T03:32:46.958Z,223.06
2023-01-25T03:33:46.950Z,223.06
2023-01-25T03:34:46.943Z,223.06
2023-01-25T03:35:47.020Z,223.06
2023-01-25T03:36:46.959Z,223.06
2023-01-25T03:37:46.962Z,223.06
2023-01-25T03:38:46.948Z,223.06
2023-01-25T03:39:46.947Z,223.06
2023-01-25T03:40:46.949Z,223.06
2023-01-25T03:41:46.975Z,223.06
2023-01-25T03:42:46.957Z,223.06
2023-01-25T03:43:46.965Z,223.06
2023-01-25T03:44:46.969Z,223.06
2023-01-25T03:45:46.972Z,223.06
2023-01-25T03:46:47.006Z,223.06
2023-01-25T03:47:46.985Z,223.06
2023-01-25T03:48:46.965Z,223.06
2023-01-25T03:49:46.969Z,223.06
2023-01-25T03:50:46.985Z,223.06
2023-01-25T03:51:46.992Z,223.06
2023-01-25T03:52:46.965Z,223.06
2023-01-25T03:53:46.993Z,223.06
2023-01-25T03:54:46.979Z,223.06
2023-01-25T03:55:46.986Z,223.06
2023-01-25T03:56:46.977Z,223.06
2023-01-25T03:57:47.005Z,223.06
2023-01-25T03:58:46.977Z,223.06
2023-01-25T03:59:46.985Z,223.06
2023-01-25T04:00:47.068Z,223.06
2023-01-25T04:01:46.992Z,223.06
2023-01-25T04:02:46.989Z,223.06
2023-01-25T04:03:46.983Z,223.06
2023-01-25T04:04:46.991Z,223.06
2023-01-25T04:05:46.995Z,223.06
2023-01-25T04:06:46.985Z,223.06
2023-01-25T04:07:46.988Z,223.06
2023-01-25T04:08:46.988Z,223.06
2023-01-25T04:09:46.996Z,223.06
2023-01-25T04:10:46.999Z,223.06
2023-01-25T04:11:46.995Z,223.06
2023-01-25T04:12:46.997Z,223.06
2023-01-25T04:13:47.030Z,223.06
2023-01-25T04:14:46.993Z,223.06
2023-01-25T04:15:47.005Z,223.06
2023-01-25T04:16:47.038Z,223.06
2023-01-25T04:17:47.005Z,223.06
2023-01-25T04:18:47.000Z,223.06
2023-01-25T04:19:47.010Z,223.06
2023-01-25T04:20:47.009Z,223.06
2023-01-25T04:21:47.002Z,223.06
2023-01-25T04:22:47.025Z,223.06
2023-01-25T04:23:47.025Z,223.06
2023-01-25T04:24:47.014Z,223.06
2023-01-25T04:25:47.012Z,223.06
2023-01-25T04:26:47.020Z,223.06
2023-01-25T04:27:47.012Z,223.06
2023-01-25T04:28:47.020Z,223.06
2023-01-25T04:29:47.034Z,223.06
2023-01-25T04:30:47.027Z,223.06
2023-01-25T04:31:47.118Z,223.06
2023-01-25T04:32:47.163Z,223.06
2023-01-25T04:33:47.030Z,223.06
2023-01-25T04:34:47.030Z,223.06
2023-01-25T04:35:47.029Z,223.06
2023-01-25T04:36:47.020Z,223.06
2023-01-25T04:37:47.020Z,223.06
2023-01-25T04:38:47.028Z,223.06
2023-01-25T04:39:47.039Z,223.06
2023-01-25T04:40:47.013Z,223.06
2023-01-25T04:41:47.038Z,223.06
2023-01-25T04:42:47.034Z,223.06
2023-01-25T04:43:47.027Z,223.06
2023-01-25T04:44:47.033Z,223.06
2023-01-25T04:45:47.123Z,223.06
2023-01-25T04:46:47.024Z,223.06
2023-01-25T04:47:47.037Z,223.06
2023-01-25T04:48:47.043Z,223.06
2023-01-25T04:49:47.071Z,223.06
2023-01-25T04:50:47.042Z,223.06
2023-01-25T04:51:47.043Z,223.06
2023-01-25T04:52:47.029Z,223.06
2023-01-25T04:53:47.040Z,223.06
2023-01-25T04:54:47.050Z,223.06
2023-01-25T04:55:47.038Z,223.06
2023-01-25T04:56:47.051Z,223.06
2023-01-25T04:57:47.039Z,223.06
2023-01-25T04:58:47.044Z,223.06
2023-01-25T04:59:47.039Z,223.06
2023-01-25T05:00:47.039Z,223.06
2023-01-25T05:01:47.078Z,223.06
2023-01-25T05:02:47.222Z,223.06
2023-01-25T05:03:47.044Z,223.06
2023-01-25T05:04:47.057Z,223.06
2023-01-25T05:05:47.055Z,223.06
2023-01-25T05:06:47.051Z,223.06
2023-01-25T05:07:47.082Z,223.06
2023-01-25T05:08:47.057Z,223.06
2023-01-25T05:09:47.057Z,223.06
2023-01-25T05:10:47.050Z,223.06
2023-01-25T05:11:47.055Z,223.06
2023-01-25T05:12:47.060Z,223.06
2023-01-25T05:13:47.075Z,223.06
2023-01-25T05:14:47.062Z,223.06
2023-01-25T05:15:47.052Z,223.06
2023-01-25T05:16:47.140Z,223.06
2023-01-25T05:17:47.085Z,223.06
2023-01-25T05:18:49.025Z,223.06
2023-01-25T05:19:47.062Z,223.06
2023-01-25T05:20:47.059Z,223.06
2023-01-25T05:21:47.060Z,223.06
2023-01-25T05:22:47.073Z,223.06
2023-01-25T05:23:47.195Z,223.06
2023-01-25T05:24:47.061Z,223.06
2023-01-25T05:25:47.074Z,223.06
2023-01-25T05:26:47.059Z,223.06
2023-01-25T05:27:47.069Z,223.06
2023-01-25T05:28:47.058Z,223.06
2023-01-25T05:29:47.049Z,223.06
2023-01-25T05:30:47.138Z,223.06
2023-01-25T05:31:47.160Z,223.06
2023-01-25T05:32:47.054Z,223.06
2023-01-25T05:33:47.089Z,223.06
2023-01-25T05:34:47.069Z,223.06
2023-01-25T05:35:47.068Z,223.06
2023-01-25T05:36:47.064Z,223.06
2023-01-25T05:37:47.095Z,223.06
2023-01-25T05:38:47.063Z,223.06
2023-01-25T05:39:47.066Z,223.06
2023-01-25T05:40:47.077Z,223.06
2023-01-25T05:41:47.072Z,223.06
2023-01-25T05:42:47.075Z,223.06
2023-01-25T05:43:47.067Z,223.06
2023-01-25T05:44:47.992Z,223.06
2023-01-25T05:45:47.174Z,223.06
2023-01-25T05:46:47.062Z,223.06
2023-01-25T05:47:47.069Z,223.06
2023-01-25T05:48:47.084Z,223.06
2023-01-25T05:49:47.102Z,223.06
2023-01-25T05:50:47.072Z,223.06
2023-01-25T05:51:47.072Z,223.06
2023-01-25T05:52:47.069Z,223.06
2023-01-25T05:53:47.079Z,223.06
2023-01-25T05:54:47.080Z,223.06
2023-01-25T05:55:47.070Z,223.06
2023-01-25T05:56:47.073Z,223.06
2023-01-25T05:57:47.080Z,223.06
2023-01-25T05:58:47.092Z,223.06
2023-01-25T05:59:47.085Z,223.06
2023-01-25T06:00:47.081Z,223.06
2023-01-25T06:01:47.075Z,223.06
2023-01-25T06:02:47.223Z,223.06
2023-01-25T06:03:47.187Z,223.06
2023-01-25T06:04:47.086Z,223.06
2023-01-25T06:05:47.111Z,223.06
2023-01-25T06:06:47.089Z,223.06
2023-01-25T06:07:47.095Z,223.06
2023-01-25T06:08:47.090Z,223.06
2023-01-25T06:09:47.094Z,223.06
2023-01-25T06:10:47.111Z,223.06
2023-01-25T06:11:47.122Z,223.06
2023-01-25T06:12:47.131Z,223.06
2023-01-25T06:13:47.111Z,223.06
2023-01-25T06:14:47.099Z,223.06
2023-01-25T06:15:47.142Z,223.06
2023-01-25T06:16:47.117Z,223.06
2023-01-25T06:17:47.109Z,223.06
2023-01-25T06:18:47.125Z,223.06
2023-01-25T06:19:47.114Z,223.06
2023-01-25T06:20:47.111Z,223.06
2023-01-25T06:21:47.157Z,223.06
2023-01-25T06:22:47.111Z,223.06
2023-01-25T06:23:47.193Z,223.06
2023-01-25T06:24:47.139Z,223.06
2023-01-25T06:25:47.125Z,223.06
2023-01-25T06:26:47.131Z,223.06
2023-01-25T06:27:47.135Z,223.06
2023-01-25T06:28:47.130Z,223.06
2023-01-25T06:29:47.127Z,223.06
2023-01-25T06:30:47.143Z,223.06
2023-01-25T06:31:47.147Z,223.06
2023-01-25T06:32:47.126Z,223.06
2023-01-25T06:33:47.153Z,223.06
2023-01-25T06:34:47.128Z,223.06
2023-01-25T06:35:47.132Z,223.06
2023-01-25T06:36:47.142Z,223.06
2023-01-25T06:37:47.174Z,223.06
2023-01-25T06:38:47.141Z,223.06
2023-01-25T06:39:47.162Z,223.06
2023-01-25T06:40:47.136Z,223.06
2023-01-25T06:41:47.146Z,223.06
2023-01-25T06:42:47.170Z,223.06
2023-01-25T06:43:47.135Z,223.06
2023-01-25T06:44:47.166Z,223.06
2023-01-25T06:45:47.149Z,223.06
2023-01-25T06:46:47.180Z,223.06
2023-01-25T06:47:47.155Z,223.06
2023-01-25T06:48:47.169Z,223.06
2023-01-25T06:49:47.154Z,223.06
2023-01-25T06:50:47.159Z,223.06
2023-01-25T06:51:47.155Z,223.06
2023-01-25T06:52:47.159Z,223.06
2023-01-25T06:53:47.237Z,223.06
2023-01-25T06:54:47.162Z,223.06
2023-01-25T06:55:47.170Z,223.06
2023-01-25T06:56:47.173Z,223.06
2023-01-25T06:57:47.172Z,223.06
2023-01-25T06:58:47.205Z,223.06
2023-01-25T06:59:47.180Z,223.06
2023-01-25T07:00:47.196Z,223.06
2023-01-25T07:01:47.249Z,223.06
2023-01-25T07:02:47.223Z,223.06
2023-01-25T07:03:47.180Z,223.06
2023-01-25T07:04:47.190Z,223.06
2023-01-25T07:05:47.195Z,223.06
2023-01-25T07:06:47.187Z,223.06
2023-01-25T07:07:47.192Z,223.06
2023-01-25T07:08:47.200Z,223.06
2023-01-25T07:09:47.220Z,223.06
2023-01-25T07:10:47.197Z,223.06
2023-01-25T07:11:47.219Z,223.06
2023-01-25T07:12:47.190Z,223.06
2023-01-25T07:13:47.201Z,223.06
2023-01-25T07:14:47.215Z,223.06
2023-01-25T07:15:47.206Z,223.06
2023-01-25T07:16:47.215Z,223.06
2023-01-25T07:17:47.206Z,223.06
2023-01-25T07:18:47.213Z,223.06
2023-01-25T07:19:47.217Z,223.06
2023-01-25T07:20:47.207Z,223.06
2023-01-25T07:21:47.224Z,223.06
2023-01-25T07:22:47.207Z,223.06
2023-01-25T07:23:47.257Z,223.06
2023-01-25T07:24:47.235Z,223.06
2023-01-25T07:25:47.253Z,223.06
2023-01-25T07:26:47.220Z,223.06
2023-01-25T07:27:47.242Z,223.06
2023-01-25T07:28:47.253Z,223.06
2023-01-25T07:29:47.248Z,223.06
2023-01-25T07:30:47.244Z,223.06
2023-01-25T07:31:47.372Z,223.06
2023-01-25T07:32:47.246Z,223.06
2023-01-25T07:33:47.250Z,223.06
2023-01-25T07:34:47.247Z,223.06
2023-01-25T07:35:47.252Z,223.06
2023-01-25T07:36:47.260Z,223.06
2023-01-25T07:37:47.254Z,223.06
2023-01-25T07:38:47.248Z,223.06
2023-01-25T07:39:47.248Z,223.06
2023-01-25T07:40:47.233Z,223.06
2023-01-25T07:41:47.281Z,223.06
2023-01-25T07:42:47.256Z,223.06
2023-01-25T07:43:47.251Z,223.06
2023-01-25T07:44:47.271Z,223.06
2023-01-25T07:45:47.256Z,223.06
2023-01-25T07:46:47.270Z,223.06
2023-01-25T07:47:47.251Z,223.06
2023-01-25T07:48:47.258Z,223.06
2023-01-25T07:49:47.272Z,223.06
2023-01-25T07:50:47.270Z,223.06
2023-01-25T07:51:47.268Z,223.06
2023-01-25T07:52:47.277Z,223.06
2023-01-25T07:53:47.265Z,223.06
2023-01-25T07:54:48.321Z,223.06
2023-01-25T07:55:47.264Z,223.06
2023-01-25T07:56:47.271Z,223.06
2023-01-25T07:57:47.295Z,223.06
2023-01-25T07:58:47.308Z,223.06
2023-01-25T07:59:47.275Z,223.06
2023-01-25T08:00:47.296Z,223.06
2023-01-25T08:01:47.286Z,223.06
2023-01-25T08:02:47.280Z,223.06
2023-01-25T08:03:47.285Z,223.06
2023-01-25T08:04:47.274Z,223.06
2023-01-25T08:05:47.283Z,223.06
2023-01-25T08:06:47.285Z,223.06
2023-01-25T08:07:47.295Z,223.06
2023-01-25T08:08:47.301Z,223.06
2023-01-25T08:09:47.295Z,223.06
2023-01-25T08:10:47.290Z,223.06
2023-01-25T08:11:47.296Z,223.06
2023-01-25T08:12:47.324Z,223.06
2023-01-25T08:13:47.320Z,223.06
2023-01-25T08:14:47.297Z,223.06
2023-01-25T08:15:47.301Z,223.06
2023-01-25T08:16:47.329Z,223.06
2023-01-25T08:17:47.321Z,223.06
2023-01-25T08:18:47.303Z,223.06
2023-01-25T08:19:47.304Z,223.06
2023-01-25T08:20:47.319Z,223.06
2023-01-25T08:21:47.314Z,223.06
2023-01-25T08:22:47.314Z,223.06
2023-01-25T08:23:47.377Z,223.06
2023-01-25T08:24:47.327Z,223.06
2023-01-25T08:25:47.307Z,223.06
2023-01-25T08:26:47.317Z,223.06
2023-01-25T08:27:47.312Z,223.06
2023-01-25T08:28:47.311Z,223.06
2023-01-25T08:29:47.349Z,223.06
2023-01-25T08:30:56.701Z,223.06
2023-01-25T08:31:47.421Z,223.06
2023-01-25T08:32:47.321Z,223.06
2023-01-25T08:33:47.325Z,223.06
2023-01-25T08:34:47.331Z,223.06
2023-01-25T08:35:47.335Z,223.06
2023-01-25T08:36:47.340Z,223.06
2023-01-25T08:37:47.331Z,223.06
2023-01-25T08:38:47.357Z,223.06
2023-01-25T08:39:47.322Z,223.06
2023-01-25T08:40:47.354Z,223.06
2023-01-25T08:41:47.334Z,223.06
2023-01-25T08:42:47.340Z,223.06
2023-01-25T08:43:47.367Z,223.06
2023-01-25T08:44:47.355Z,223.06
2023-01-25T08:45:47.363Z,223.06
2023-01-25T08:46:47.351Z,223.06
2023-01-25T08:47:47.354Z,223.06
2023-01-25T08:48:47.341Z,223.06
2023-01-25T08:49:47.333Z,223.06
2023-01-25T08:50:47.337Z,223.06
2023-01-25T08:51:47.342Z,223.06
2023-01-25T08:52:47.348Z,223.06
2023-01-25T08:53:47.351Z,223.06
2023-01-25T08:54:47.348Z,223.06
2023-01-25T08:55:47.380Z,223.06
2023-01-25T08:56:47.351Z,223.06
2023-01-25T08:57:47.351Z,223.06
2023-01-25T08:58:47.350Z,223.06
2023-01-25T08:59:47.349Z,223.06
2023-01-25T09:00:47.363Z,223.06
2023-01-25T09:01:47.411Z,223.06
2023-01-25T09:02:47.352Z,223.06
2023-01-25T09:03:47.468Z,223.06
2023-01-25T09:04:47.364Z,223.06
2023-01-25T09:05:47.376Z,223.06
2023-01-25T09:06:47.375Z,223.06
2023-01-25T09:07:47.721Z,223.06
2023-01-25T09:08:47.382Z,223.06
2023-01-25T09:09:47.373Z,223.06
2023-01-25T09:10:47.367Z,223.06
2023-01-25T09:11:47.370Z,223.06
2023-01-25T09:12:47.384Z,223.06
2023-01-25T09:13:47.373Z,223.06
2023-01-25T09:14:47.375Z,223.06
2023-01-25T09:15:47.369Z,223.06
2023-01-25T09:16:47.382Z,223.06
2023-01-25T09:17:47.404Z,223.06
2023-01-25T09:18:49.635Z,223.06
2023-01-25T09:19:47.390Z,223.06
2023-01-25T09:20:47.396Z,223.06
2023-01-25T09:21:47.412Z,223.06
2023-01-25T09:22:47.397Z,223.06
2023-01-25T09:23:50.893Z,223.06
2023-01-25T09:24:47.399Z,223.06
2023-01-25T09:25:47.383Z,223.06
2023-01-25T09:26:55.842Z,223.06
2023-01-25T09:27:47.397Z,223.06
2023-01-25T09:28:47.391Z,223.06
2023-01-25T09:30:00.859Z,223.06
2023-01-25T09:30:53.662Z,223.06
2023-01-25T09:31:47.419Z,223.06
2023-01-25T09:32:47.489Z,223.06
2023-01-25T09:33:47.423Z,223.06
2023-01-25T09:34:47.394Z,223.06
2023-01-25T09:35:47.400Z,223.06
2023-01-25T09:36:47.409Z,223.06
2023-01-25T09:37:47.406Z,223.06
2023-01-25T09:38:47.404Z,223.06
2023-01-25T09:39:47.394Z,223.06
2023-01-25T09:40:47.394Z,223.06
2023-01-25T09:41:47.395Z,223.06
2023-01-25T09:42:47.403Z,223.06
2023-01-25T09:43:47.410Z,223.06
2023-01-25T09:44:47.420Z,223.06
2023-01-25T09:45:47.417Z,223.06
2023-01-25T09:46:47.411Z,223.06
2023-01-25T09:47:47.400Z,223.06
2023-01-25T09:48:48.607Z,223.06
2023-01-25T09:49:47.427Z,223.06
2023-01-25T09:50:47.424Z,223.06
2023-01-25T09:51:47.422Z,223.06
2023-01-25T09:52:47.420Z,223.06
2023-01-25T09:53:47.411Z,223.06
2023-01-25T09:54:47.697Z,223.06
2023-01-25T09:55:47.421Z,223.06
2023-01-25T09:56:47.417Z,223.06
2023-01-25T09:57:47.433Z,223.06
2023-01-25T09:58:47.426Z,223.06
2023-01-25T09:59:47.418Z,223.06
2023-01-25T10:00:47.431Z,223.06
2023-01-25T10:01:47.534Z,223.06
2023-01-25T10:02:47.453Z,223.06
2023-01-25T10:03:47.425Z,223.06
2023-01-25T10:04:47.424Z,223.06
2023-01-25T10:05:47.474Z,223.06
2023-01-25T10:07:01.997Z,223.06
2023-01-25T10:07:47.420Z,223.06
2023-01-25T10:08:47.423Z,223.06
2023-01-25T10:09:47.424Z,223.06
2023-01-25T10:10:47.421Z,223.06
2023-01-25T10:11:47.430Z,223.06
2023-01-25T10:12:47.442Z,223.06
2023-01-25T10:13:47.434Z,223.06
2023-01-25T10:14:47.426Z,223.06
2023-01-25T10:15:47.442Z,223.06
2023-01-25T10:16:47.498Z,223.06
2023-01-25T10:17:47.430Z,223.06
2023-01-25T10:18:47.428Z,223.06
2023-01-25T10:19:47.422Z,223.06
2023-01-25T10:20:47.437Z,223.06
2023-01-25T10:21:47.473Z,223.06
2023-01-25T10:22:47.441Z,223.06
2023-01-25T10:23:47.490Z,223.06
2023-01-25T10:24:47.430Z,223.06
2023-01-25T10:25:47.439Z,223.06
2023-01-25T10:26:47.438Z,223.06
2023-01-25T10:27:47.465Z,223.06
2023-01-25T10:28:47.470Z,223.06
2023-01-25T10:29:47.429Z,223.06
2023-01-25T10:30:47.474Z,223.06
2023-01-25T10:31:47.482Z,223.06
2023-01-25T10:32:55.806Z,223.06
2023-01-25T10:33:47.449Z,223.06
2023-01-25T10:34:56.174Z,223.06
2023-01-25T10:35:47.982Z,223.06
2023-01-25T10:36:47.435Z,223.06
2023-01-25T10:37:47.463Z,223.06
2023-01-25T10:38:47.456Z,223.06
2023-01-25T10:39:47.532Z,223.06
2023-01-25T10:40:47.437Z,223.06
2023-01-25T10:41:48.188Z,223.06
2023-01-25T10:42:47.437Z,223.06
2023-01-25T10:43:47.475Z,223.06
2023-01-25T10:44:47.442Z,223.06
2023-01-25T10:45:47.455Z,223.06
2023-01-25T10:46:47.465Z,223.06
2023-01-25T10:47:47.455Z,223.06
2023-01-25T10:48:47.450Z,223.06
2023-01-25T10:49:47.565Z,223.06
2023-01-25T10:50:47.472Z,223.06
2023-01-25T10:51:47.437Z,223.06
2023-01-25T10:52:47.450Z,223.06
2023-01-25T10:53:47.465Z,223.06
2023-01-25T10:54:47.434Z,223.06
2023-01-25T10:55:47.440Z,223.06
2023-01-25T10:56:47.456Z,223.06
2023-01-25T10:57:47.468Z,223.06
2023-01-25T10:58:47.443Z,223.06
2023-01-25T10:59:47.523Z,223.06
2023-01-25T11:00:47.449Z,223.06
2023-01-25T11:01:47.551Z,223.06
2023-01-25T11:02:47.519Z,223.06
2023-01-25T11:03:47.456Z,223.06
2023-01-25T11:04:47.466Z,223.06
2023-01-25T11:05:47.432Z,223.06
2023-01-25T11:06:47.439Z,223.06
2023-01-25T11:07:47.455Z,223.06
2023-01-25T11:08:47.443Z,223.06
2023-01-25T11:09:47.486Z,223.06
2023-01-25T11:10:47.451Z,223.06
2023-01-25T11:11:47.463Z,223.06
2023-01-25T11:12:47.459Z,223.06
2023-01-25T11:13:47.454Z,223.06
2023-01-25T11:14:47.459Z,223.06
2023-01-25T11:15:47.473Z,223.06
2023-01-25T11:16:47.456Z,223.06
2023-01-25T11:17:48.663Z,223.06
2023-01-25T11:18:47.465Z,223.06
2023-01-25T11:19:47.472Z,223.06
2023-01-25T11:20:47.476Z,223.06
2023-01-25T11:21:47.475Z,223.06
2023-01-25T11:22:47.485Z,180.71
2023-01-25T11:23:49.136Z,176.47
2023-01-25T11:24:47.514Z,176.47
2023-01-25T11:25:47.516Z,196.24
2023-01-25T11:26:47.533Z,170.82
2023-01-25T11:27:47.481Z,201.88
2023-01-25T11:28:47.481Z,203.29
2023-01-25T11:29:47.496Z,203.29
2023-01-25T11:30:47.576Z,120
2023-01-25T11:31:47.507Z,120
2023-01-25T11:32:47.489Z,120
2023-01-25T11:33:47.487Z,272.47
2023-01-25T11:34:47.481Z,297.88
2023-01-25T11:35:47.480Z,282.35
2023-01-25T11:36:47.495Z,286.59
2023-01-25T11:37:47.485Z,302.12
2023-01-25T11:38:47.488Z,285.18
2023-01-25T11:39:47.511Z,280.94
2023-01-25T11:40:47.516Z,272.47
2023-01-25T11:41:47.521Z,280.94
2023-01-25T11:42:47.499Z,299.29
2023-01-25T11:43:47.498Z,182.12
2023-01-25T11:44:47.506Z,182.12
2023-01-25T11:45:47.519Z,182.12
2023-01-25T11:46:47.608Z,175.06
2023-01-25T11:47:47.517Z,170.82
2023-01-25T11:48:47.526Z,168
2023-01-25T11:49:47.512Z,168
2023-01-25T11:50:47.514Z,168
2023-01-25T11:51:48.916Z,168
2023-01-25T11:52:47.521Z,163.76
2023-01-25T11:53:47.507Z,179.29
2023-01-25T11:54:47.509Z,187.76
2023-01-25T11:55:47.507Z,199.06
2023-01-25T11:56:47.522Z,170.82
2023-01-25T11:57:47.532Z,214.59
2023-01-25T11:58:47.517Z,214.59
2023-01-25T11:59:47.520Z,214.59
2023-01-25T12:00:47.515Z,214.59
2023-01-25T12:01:47.550Z,214.59
2023-01-25T12:02:47.526Z,214.59
2023-01-25T12:03:47.578Z,214.59
2023-01-25T12:04:47.537Z,214.59
2023-01-25T12:05:47.536Z,214.59
2023-01-25T12:06:47.537Z,214.59
2023-01-25T12:07:47.528Z,214.59
2023-01-25T12:08:47.536Z,214.59
2023-01-25T12:09:47.533Z,214.59
2023-01-25T12:10:47.526Z,182.12
2023-01-25T12:11:47.524Z,197.65
2023-01-25T12:12:47.534Z,216
2023-01-25T12:13:47.552Z,170.82
2023-01-25T12:14:47.529Z,169.41
2023-01-25T12:15:47.609Z,125.65
2023-01-25T12:16:47.543Z,125.65
2023-01-25T12:17:47.537Z,125.65
2023-01-25T12:18:47.536Z,125.65
2023-01-25T12:19:47.534Z,125.65
2023-01-25T12:20:47.561Z,125.65
2023-01-25T12:21:47.536Z,125.65
2023-01-25T12:22:47.564Z,125.65
2023-01-25T12:23:47.616Z,125.65
2023-01-25T12:24:47.550Z,125.65
2023-01-25T12:25:47.533Z,187.76
2023-01-25T12:26:47.545Z,156.71
2023-01-25T12:27:47.538Z,183.53
2023-01-25T12:28:47.547Z,196.24
2023-01-25T12:29:47.614Z,204.71
2023-01-25T12:30:47.596Z,203.29
2023-01-25T12:31:47.618Z,190.59
2023-01-25T12:32:47.569Z,211.76
2023-01-25T12:33:47.559Z,206.12
2023-01-25T12:34:47.557Z,182.12
2023-01-25T12:35:47.558Z,160.94
2023-01-25T12:36:47.558Z,165.18